Time;durP1;ratioP1;P1;durP2;ratioP2;P2;SDS_P1;SDS_P2;PMS_P1;PMS_P2;Temp;Humidity;BMP_temperature;BMP_pressure;BME280_temperature;BME280_humidity;BME280_pressure;Samples;Min_cycle;Max_cycle;Signal;HPM_P1;HPM_P2
2023/11/29 00:02:05;;;;;;;9.93;6.78;;;22.40;40.50;;;;;;6178396;28;80494;-60
2023/11/29 00:05:06;;;;;;;11.93;7.53;;;22.40;40.30;;;;;;6179258;28;80623;-60
2023/11/29 00:08:07;;;;;;;12.15;7.57;;;22.40;40.30;;;;;;6177628;28;80510;-58
2023/11/29 00:11:07;;;;;;;10.85;6.70;;;22.40;40.20;;;;;;6179340;28;80590;-67
2023/11/29 00:14:08;;;;;;;10.80;7.20;;;22.40;40.10;;;;;;6166938;28;80940;-69
2023/11/29 00:17:10;;;;;;;11.07;7.50;;;22.40;39.90;;;;;;6180344;28;81782;-69
2023/11/29 00:20:11;;;;;;;11.38;7.65;;;22.40;39.80;;;;;;6179034;28;81598;-67
2023/11/29 00:23:11;;;;;;;9.80;7.00;;;22.40;39.80;;;;;;6179262;28;80586;-68
2023/11/29 00:26:12;;;;;;;11.32;7.43;;;22.40;39.90;;;;;;6178960;28;82639;-67
2023/11/29 00:29:12;;;;;;;12.73;8.75;;;22.40;40.10;;;;;;6176599;28;80656;-67
2023/11/29 00:32:13;;;;;;;10.10;7.22;;;22.40;40.00;;;;;;6176248;28;83091;-60
2023/11/29 00:35:13;;;;;;;10.35;7.40;;;22.30;39.60;;;;;;6178081;28;80612;-60
2023/11/29 00:38:14;;;;;;;11.32;7.55;;;22.30;39.60;;;;;;6178602;28;80641;-60
2023/11/29 00:41:15;;;;;;;12.32;8.27;;;22.30;39.40;;;;;;6176488;28;81914;-60
2023/11/29 00:44:15;;;;;;;11.63;8.40;;;22.30;39.70;;;;;;6178531;28;80858;-60
2023/11/29 00:47:16;;;;;;;12.70;8.15;;;22.30;39.60;;;;;;6176404;28;82384;-61
2023/11/29 00:50:16;;;;;;;11.40;8.35;;;22.30;39.60;;;;;;6177986;28;80728;-61
2023/11/29 00:53:17;;;;;;;12.77;8.45;;;22.30;39.60;;;;;;6179010;28;80677;-62
2023/11/29 00:56:17;;;;;;;13.02;9.05;;;22.30;39.70;;;;;;6154561;28;86252;-63
2023/11/29 00:59:18;;;;;;;11.45;7.38;;;22.30;39.80;;;;;;6176857;28;83357;-63
2023/11/29 01:02:18;;;;;;;13.48;9.20;;;22.30;39.80;;;;;;6177884;28;80800;-61
2023/11/29 01:05:19;;;;;;;12.40;7.82;;;22.30;39.70;;;;;;6155018;28;80339;-63
2023/11/29 01:08:24;;;;;;;12.52;8.25;;;22.30;40.30;;;;;;6178530;28;80336;-62
2023/11/29 01:11:25;;;;;;;12.93;8.25;;;22.30;40.10;;;;;;6175908;28;82895;-63
2023/11/29 01:14:26;;;;;;;13.10;8.35;;;22.30;40.10;;;;;;6178308;28;80659;-63
2023/11/29 01:17:26;;;;;;;12.75;7.85;;;22.30;40.10;;;;;;6178723;28;80353;-62
2023/11/29 01:20:27;;;;;;;12.10;8.75;;;22.30;40.00;;;;;;6175103;28;87507;-63
2023/11/29 01:23:27;;;;;;;10.93;8.30;;;22.30;40.10;;;;;;6151404;28;83594;-61
2023/11/29 01:26:29;;;;;;;10.27;7.60;;;22.30;40.10;;;;;;6153993;28;80591;-60
2023/11/29 01:29:29;;;;;;;11.85;7.65;;;22.30;40.10;;;;;;6145921;28;83316;-59
2023/11/29 01:32:30;;;;;;;11.07;7.55;;;22.30;40.70;;;;;;6145788;28;83276;-59
2023/11/29 01:35:30;;;;;;;10.13;7.47;;;22.30;40.60;;;;;;6140352;28;80391;-60
2023/11/29 01:38:31;;;;;;;11.15;7.93;;;22.30;40.70;;;;;;6150535;28;83136;-60
2023/11/29 01:41:31;;;;;;;12.88;8.07;;;22.30;40.60;;;;;;6152162;28;80478;-59
2023/11/29 01:44:32;;;;;;;12.48;8.50;;;22.30;41.10;;;;;;6154054;28;83631;-62
2023/11/29 01:47:37;;;;;;;11.20;7.40;;;22.30;41.00;;;;;;6200015;28;81674;-63
2023/11/29 01:50:37;;;;;;;13.00;8.73;;;22.30;40.80;;;;;;6199536;28;80758;-62
2023/11/29 01:53:38;;;;;;;11.40;7.20;;;22.40;40.40;;;;;;6183433;28;83164;-63
2023/11/29 01:56:39;;;;;;;11.45;7.45;;;22.40;40.50;;;;;;6177685;28;80924;-62
2023/11/29 01:59:39;;;;;;;12.00;8.40;;;22.30;40.10;;;;;;6175974;28;82968;-63
2023/11/29 02:02:40;;;;;;;13.55;7.88;;;22.40;40.10;;;;;;6165972;28;80555;-55
2023/11/29 02:05:40;;;;;;;14.35;8.60;;;22.40;40.20;;;;;;6175881;28;80151;-58
2023/11/29 02:08:41;;;;;;;12.15;8.10;;;22.40;40.10;;;;;;6174263;28;81653;-58
2023/11/29 02:11:44;;;;;;;15.80;8.38;;;22.40;40.10;;;;;;6175931;28;80796;-58
2023/11/29 02:14:44;;;;;;;13.45;8.95;;;22.40;40.10;;;;;;6177225;28;83808;-58
2023/11/29 02:17:45;;;;;;;15.57;9.20;;;22.30;39.50;;;;;;6183887;28;83152;-59
2023/11/29 02:20:45;;;;;;;12.93;8.68;;;22.30;39.50;;;;;;6152109;28;80754;-64
2023/11/29 02:23:46;;;;;;;11.82;8.52;;;22.30;39.60;;;;;;6175573;28;80607;-67
2023/11/29 02:26:47;;;;;;;13.75;8.93;;;22.30;39.50;;;;;;6177324;28;80329;-67
2023/11/29 02:29:47;;;;;;;12.70;8.38;;;22.30;39.30;;;;;;6172131;28;80696;-66
2023/11/29 02:32:48;;;;;;;14.40;9.18;;;22.30;39.80;;;;;;6154078;28;81398;-67
2023/11/29 02:35:48;;;;;;;12.80;8.25;;;22.30;40.20;;;;;;6172448;28;81321;-67
2023/11/29 02:38:49;;;;;;;13.80;9.23;;;22.30;40.20;;;;;;6175307;28;81427;-61
2023/11/29 02:41:49;;;;;;;15.43;9.93;;;22.20;39.80;;;;;;6173922;28;83000;-60
2023/11/29 02:44:49;;;;;;;15.32;9.55;;;22.20;39.60;;;;;;6173877;28;81718;-60
2023/11/29 02:47:50;;;;;;;13.88;9.38;;;22.20;39.80;;;;;;6175894;28;80326;-63
2023/11/29 02:50:50;;;;;;;15.98;9.07;;;22.20;39.70;;;;;;6175240;28;80379;-62
2023/11/29 02:53:51;;;;;;;12.50;8.90;;;22.20;39.50;;;;;;6173212;28;81413;-61
2023/11/29 02:56:51;;;;;;;15.82;9.05;;;22.20;39.60;;;;;;6174331;28;83119;-66
2023/11/29 02:59:52;;;;;;;13.43;9.23;;;22.20;39.80;;;;;;6176988;28;85869;-66
2023/11/29 03:02:53;;;;;;;13.02;8.85;;;22.20;39.80;;;;;;6174286;28;83541;-63
2023/11/29 03:05:54;;;;;;;12.23;8.50;;;22.20;40.70;;;;;;6175639;28;80502;-64
2023/11/29 03:08:54;;;;;;;13.48;8.68;;;22.20;40.60;;;;;;6176345;28;80163;-64
2023/11/29 03:11:55;;;;;;;14.48;9.40;;;22.20;40.30;;;;;;6175401;28;81508;-65
2023/11/29 03:14:56;;;;;;;15.95;10.30;;;22.20;39.70;;;;;;6173965;28;81795;-63
2023/11/29 03:17:58;;;;;;;13.65;9.70;;;22.20;39.90;;;;;;6172603;28;83080;-62
2023/11/29 03:20:59;;;;;;;16.35;10.55;;;22.10;40.00;;;;;;6151240;28;85830;-62
2023/11/29 03:24:01;;;;;;;15.60;11.05;;;22.10;40.00;;;;;;6170099;28;82983;-63
2023/11/29 03:27:02;;;;;;;14.52;9.25;;;22.10;40.00;;;;;;6172177;28;83162;-64
2023/11/29 03:30:03;;;;;;;15.93;10.27;;;22.10;40.00;;;;;;6176278;28;83055;-63
2023/11/29 03:33:03;;;;;;;15.40;10.38;;;22.10;40.40;;;;;;6171291;28;82939;-63
2023/11/29 03:36:04;;;;;;;14.23;9.68;;;22.10;39.90;;;;;;6171096;28;82922;-62
2023/11/29 03:39:04;;;;;;;17.05;10.38;;;22.10;40.00;;;;;;6175569;28;82832;-60
2023/11/29 03:42:06;;;;;;;17.90;11.48;;;22.10;39.90;;;;;;6170935;28;83566;-62
2023/11/29 03:45:06;;;;;;;18.55;11.98;;;22.10;39.60;;;;;;6170983;28;83335;-61
2023/11/29 03:48:07;;;;;;;15.38;10.05;;;22.10;39.50;;;;;;6172466;28;83376;-61
2023/11/29 03:51:08;;;;;;;16.90;10.80;;;22.10;39.30;;;;;;6170248;28;86886;-60
2023/11/29 03:54:09;;;;;;;19.27;11.45;;;22.10;39.40;;;;;;6171507;28;82965;-61
2023/11/29 03:57:11;;;;;;;18.23;11.43;;;22.10;39.10;;;;;;6170512;28;83447;-61
2023/11/29 04:00:11;;;;;;;18.92;12.15;;;22.10;39.10;;;;;;6169400;28;86127;-61
2023/11/29 04:03:12;;;;;;;18.60;12.00;;;22.10;39.10;;;;;;6170037;28;84867;-60
2023/11/29 04:06:12;;;;;;;19.60;11.10;;;22.10;39.30;;;;;;6172356;28;83597;-59
2023/11/29 04:09:13;;;;;;;14.77;10.27;;;22.10;39.00;;;;;;6175550;28;84100;-60
2023/11/29 04:12:13;;;;;;;17.17;11.25;;;22.10;38.80;;;;;;6173556;28;82988;-60
2023/11/29 04:15:14;;;;;;;19.55;11.48;;;22.10;40.00;;;;;;6167543;28;85583;-60
2023/11/29 04:18:14;;;;;;;16.33;10.70;;;22.10;38.70;;;;;;6174194;28;85092;-59
2023/11/29 04:21:15;;;;;;;16.30;9.95;;;22.20;39.30;;;;;;6172384;28;86165;-62
2023/11/29 04:24:16;;;;;;;16.67;11.25;;;22.20;39.30;;;;;;6177294;28;85564;-60
2023/11/29 04:27:16;;;;;;;17.27;10.38;;;22.20;39.00;;;;;;6173721;28;83040;-61
2023/11/29 04:30:16;;;;;;;16.30;11.05;;;22.20;39.40;;;;;;6172544;28;85775;-62
2023/11/29 04:33:17;;;;;;;18.48;10.95;;;22.30;39.40;;;;;;6173378;28;85955;-61
2023/11/29 04:36:18;;;;;;;16.77;10.50;;;22.30;39.10;;;;;;6175053;28;83841;-59
2023/11/29 04:39:18;;;;;;;17.67;10.65;;;22.30;38.80;;;;;;6174733;28;82891;-59
2023/11/29 04:42:19;;;;;;;18.38;10.80;;;22.30;38.50;;;;;;6172908;28;85666;-59
2023/11/29 04:45:19;;;;;;;17.65;11.52;;;22.30;38.20;;;;;;6174202;28;84588;-61
2023/11/29 04:48:21;;;;;;;14.25;10.63;;;22.30;38.00;;;;;;6175411;28;83330;-60
2023/11/29 04:51:22;;;;;;;17.75;11.93;;;22.40;37.10;;;;;;6173102;28;83552;-61
2023/11/29 04:54:22;;;;;;;23.48;12.65;;;22.40;37.00;;;;;;6168156;28;84742;-63
2023/11/29 04:57:23;;;;;;;18.95;11.57;;;22.40;37.30;;;;;;6169520;28;84880;-63
2023/11/29 05:00:23;;;;;;;19.80;11.68;;;22.40;37.20;;;;;;6174872;28;85184;-62
2023/11/29 05:03:24;;;;;;;16.67;11.18;;;22.40;37.30;;;;;;6175358;28;83160;-61
2023/11/29 05:06:25;;;;;;;18.33;11.32;;;22.40;37.40;;;;;;6174889;28;83311;-60
2023/11/29 05:09:25;;;;;;;18.77;11.57;;;22.50;37.30;;;;;;6174416;28;85071;-62
2023/11/29 05:12:26;;;;;;;16.80;11.32;;;22.50;37.10;;;;;;6173923;28;83167;-58
2023/11/29 05:15:26;;;;;;;17.58;10.70;;;22.50;38.30;;;;;;6173769;28;82852;-60
2023/11/29 05:18:27;;;;;;;17.10;10.05;;;22.50;39.10;;;;;;6172640;28;83789;-61
2023/11/29 05:21:27;;;;;;;17.48;10.73;;;22.50;38.40;;;;;;6173670;28;83325;-69
2023/11/29 05:24:28;;;;;;;18.33;10.68;;;22.60;38.60;;;;;;6174470;28;83814;-59
2023/11/29 05:27:28;;;;;;;15.95;10.55;;;22.60;38.90;;;;;;6174598;28;83252;-60
2023/11/29 05:30:29;;;;;;;20.50;11.30;;;22.60;38.70;;;;;;6171827;28;83108;-61
2023/11/29 05:33:29;;;;;;;22.48;11.00;;;22.60;38.60;;;;;;6172221;28;83045;-59
2023/11/29 05:36:30;;;;;;;26.20;10.20;;;22.60;38.90;;;;;;6164637;28;83621;-61
2023/11/29 05:39:31;;;;;;;25.08;10.40;;;22.70;39.20;;;;;;6143720;28;84814;-60
2023/11/29 05:42:31;;;;;;;25.95;10.75;;;22.70;39.60;;;;;;6164098;28;85019;-63
2023/11/29 05:45:32;;;;;;;15.65;10.63;;;22.70;39.30;;;;;;6147657;28;85599;-64
2023/11/29 05:48:32;;;;;;;18.35;10.20;;;22.80;39.00;;;;;;6166005;28;83141;-63
2023/11/29 05:51:35;;;;;;;19.20;11.23;;;22.80;39.10;;;;;;6169962;28;84070;-56
2023/11/29 05:54:35;;;;;;;24.27;10.73;;;22.80;39.00;;;;;;6173519;28;82977;-60
2023/11/29 05:57:36;;;;;;;19.13;11.18;;;22.80;39.10;;;;;;6172198;28;83038;-62
2023/11/29 06:00:36;;;;;;;19.25;10.75;;;22.80;38.40;;;;;;6160345;28;83220;-62
2023/11/29 06:03:37;;;;;;;16.02;10.48;;;22.70;38.00;;;;;;6169313;28;83602;-62
2023/11/29 06:06:37;;;;;;;15.90;10.93;;;22.70;38.00;;;;;;6170677;28;84191;-62
2023/11/29 06:09:39;;;;;;;19.23;11.43;;;22.80;37.80;;;;;;6170123;28;83551;-63
2023/11/29 06:12:39;;;;;;;19.90;12.00;;;22.70;37.60;;;;;;6169014;28;83290;-62
2023/11/29 06:15:42;;;;;;;18.95;11.77;;;22.70;37.60;;;;;;6168907;28;85226;-63
2023/11/29 06:18:43;;;;;;;17.90;11.75;;;22.80;37.60;;;;;;6170418;28;84365;-61
2023/11/29 06:21:44;;;;;;;17.45;11.13;;;22.70;37.30;;;;;;6170828;28;83712;-62
2023/11/29 06:24:45;;;;;;;18.55;10.70;;;22.70;37.50;;;;;;6172536;28;84923;-62
2023/11/29 06:27:45;;;;;;;16.98;10.13;;;22.70;38.20;;;;;;6170033;28;84965;-63
2023/11/29 06:30:46;;;;;;;20.00;11.07;;;22.70;38.10;;;;;;6170621;28;83012;-61
2023/11/29 06:33:46;;;;;;;15.05;10.68;;;22.70;38.60;;;;;;6169494;28;86949;-63
2023/11/29 06:36:47;;;;;;;18.60;11.25;;;22.70;38.20;;;;;;6172341;28;83213;-62
2023/11/29 06:39:48;;;;;;;17.55;11.27;;;22.60;38.20;;;;;;6171769;28;83341;-60
2023/11/29 06:42:49;;;;;;;16.95;10.95;;;22.60;38.30;;;;;;6168119;28;83273;-62
2023/11/29 06:45:49;;;;;;;17.95;12.38;;;22.60;38.10;;;;;;6171092;28;82981;-60
2023/11/29 06:48:50;;;;;;;17.95;11.50;;;22.60;37.70;;;;;;6171251;28;83262;-59
2023/11/29 06:51:50;;;;;;;17.80;10.80;;;22.60;37.90;;;;;;6168466;28;82890;-59
2023/11/29 06:54:51;;;;;;;17.08;11.27;;;22.60;37.60;;;;;;6171702;28;83634;-58
2023/11/29 06:57:51;;;;;;;20.98;11.93;;;22.50;37.20;;;;;;6170924;28;84366;-61
2023/11/29 07:00:53;;;;;;;19.92;12.63;;;22.50;37.60;;;;;;6128335;28;85824;-61
2023/11/29 07:03:53;;;;;;;16.65;10.95;;;22.40;36.50;;;;;;6169767;28;83764;-61
2023/11/29 07:06:54;;;;;;;19.65;12.10;;;22.40;36.40;;;;;;6170567;28;83699;-61
2023/11/29 07:09:54;;;;;;;20.15;12.60;;;22.40;36.60;;;;;;6171572;28;83714;-61
2023/11/29 07:12:55;;;;;;;18.70;11.52;;;22.40;36.10;;;;;;6171647;28;85925;-61
2023/11/29 07:15:56;;;;;;;17.42;11.68;;;22.40;36.60;;;;;;6169917;28;83147;-60
2023/11/29 07:18:57;;;;;;;17.98;12.43;;;22.30;36.10;;;;;;6169848;28;83770;-61
2023/11/29 07:21:57;;;;;;;18.25;11.57;;;22.30;36.10;;;;;;6169306;28;83231;-61
2023/11/29 07:24:58;;;;;;;18.30;11.82;;;22.30;36.60;;;;;;6170454;28;84220;-62
2023/11/29 07:27:58;;;;;;;19.00;12.02;;;22.20;35.70;;;;;;6170806;28;83417;-61
2023/11/29 07:30:59;;;;;;;17.90;11.57;;;22.20;36.00;;;;;;6164696;28;83245;-61
2023/11/29 07:34:00;;;;;;;16.52;11.23;;;22.20;36.20;;;;;;6169237;28;85162;-61
2023/11/29 07:37:00;;;;;;;17.83;11.40;;;22.10;36.20;;;;;;6169512;28;83298;-61
2023/11/29 07:40:01;;;;;;;18.83;11.15;;;22.10;36.20;;;;;;6172238;28;85233;-61
2023/11/29 07:43:01;;;;;;;18.02;11.23;;;22.10;36.10;;;;;;6175735;28;83526;-61
2023/11/29 07:46:03;;;;;;;16.08;10.77;;;22.10;36.20;;;;;;6173907;28;87448;-60
2023/11/29 07:49:04;;;;;;;14.95;10.95;;;22.10;36.10;;;;;;6174504;28;82929;-61
2023/11/29 07:52:04;;;;;;;17.70;11.30;;;22.20;37.40;;;;;;6175012;28;83014;-62
2023/11/29 07:55:05;;;;;;;19.73;11.73;;;22.10;36.40;;;;;;6174059;28;84785;-61
2023/11/29 07:58:06;;;;;;;17.35;10.25;;;22.10;36.60;;;;;;6175085;28;82830;-61
2023/11/29 08:01:06;;;;;;;16.73;11.50;;;22.10;36.60;;;;;;6174839;28;84432;-61
2023/11/29 08:04:07;;;;;;;19.15;10.85;;;22.10;37.10;;;;;;6174764;28;83842;-60
2023/11/29 08:07:08;;;;;;;18.65;12.13;;;22.10;37.10;;;;;;6175356;28;83103;-62
2023/11/29 08:10:08;;;;;;;16.05;11.45;;;22.10;37.20;;;;;;6175056;28;83389;-62
2023/11/29 08:13:09;;;;;;;15.60;10.57;;;22.10;37.30;;;;;;6175937;28;82873;-63
2023/11/29 08:16:09;;;;;;;18.38;11.30;;;22.10;37.20;;;;;;6163219;28;83893;-63
2023/11/29 08:19:10;;;;;;;15.90;10.70;;;22.10;37.10;;;;;;6175523;28;83080;-62
2023/11/29 08:22:11;;;;;;;17.20;11.15;;;22.10;37.00;;;;;;6174775;28;83238;-62
2023/11/29 08:25:12;;;;;;;15.52;11.23;;;22.10;36.90;;;;;;6153204;28;85397;-62
2023/11/29 08:28:13;;;;;;;17.83;11.30;;;22.10;37.30;;;;;;6172808;28;84501;-62
2023/11/29 08:31:14;;;;;;;15.93;11.43;;;22.20;37.30;;;;;;6172721;28;83725;-61
2023/11/29 08:34:14;;;;;;;19.17;11.32;;;22.20;37.00;;;;;;6173722;28;82712;-60
2023/11/29 08:37:16;;;;;;;16.88;11.35;;;22.20;36.30;;;;;;6170311;28;83798;-62
2023/11/29 08:40:16;;;;;;;17.52;10.77;;;22.20;36.20;;;;;;6172812;28;83447;-62
2023/11/29 08:43:17;;;;;;;16.60;10.60;;;22.30;36.10;;;;;;6173384;28;83357;-65
2023/11/29 08:46:17;;;;;;;18.20;12.10;;;22.30;35.70;;;;;;6171037;28;88269;-60
2023/11/29 08:49:19;;;;;;;19.05;11.77;;;22.40;35.70;;;;;;6173854;28;83103;-61
2023/11/29 08:52:22;;;;;;;17.05;11.70;;;22.40;35.50;;;;;;6168065;28;83194;-61
2023/11/29 08:55:22;;;;;;;17.45;11.25;;;22.50;35.40;;;;;;6167719;28;84251;-61
2023/11/29 08:58:22;;;;;;;17.00;11.32;;;22.50;35.30;;;;;;6169520;28;87959;-62
2023/11/29 09:01:23;;;;;;;16.70;10.80;;;22.50;35.50;;;;;;6172988;28;84242;-61
2023/11/29 09:04:24;;;;;;;20.75;11.95;;;22.60;35.50;;;;;;6171452;28;82930;-62
2023/11/29 09:07:25;;;;;;;17.52;10.95;;;22.60;35.30;;;;;;6172507;28;84165;-60
2023/11/29 09:10:26;;;;;;;18.65;11.55;;;22.60;35.40;;;;;;6172318;28;84066;-62
2023/11/29 09:13:27;;;;;;;16.27;11.30;;;22.60;35.10;;;;;;6173476;28;83342;-62
2023/11/29 09:16:27;;;;;;;16.33;10.73;;;22.60;35.40;;;;;;6173720;28;85495;-60
2023/11/29 09:19:28;;;;;;;16.60;10.98;;;22.60;35.10;;;;;;6173911;28;82855;-62
2023/11/29 09:22:29;;;;;;;16.15;10.90;;;22.60;34.80;;;;;;6162029;28;84821;-60
2023/11/29 09:25:29;;;;;;;15.05;10.65;;;22.60;34.60;;;;;;6173747;28;83030;-62
2023/11/29 09:28:30;;;;;;;17.75;11.98;;;22.60;34.70;;;;;;6162083;28;83348;-62
2023/11/29 09:31:30;;;;;;;18.10;11.70;;;22.70;34.70;;;;;;6173780;28;84076;-62
2023/11/29 09:34:31;;;;;;;16.38;11.48;;;22.70;34.60;;;;;;6171932;28;82950;-64
2023/11/29 09:37:31;;;;;;;17.58;11.40;;;22.70;35.30;;;;;;6174303;28;83689;-63
2023/11/29 09:40:32;;;;;;;17.42;11.23;;;22.70;34.50;;;;;;6174268;28;83352;-64
2023/11/29 09:43:32;;;;;;;17.67;11.95;;;22.70;34.50;;;;;;6173480;28;83223;-61
2023/11/29 09:46:33;;;;;;;16.92;11.35;;;22.70;34.60;;;;;;6171169;28;83363;-60
2023/11/29 09:49:33;;;;;;;18.77;12.07;;;22.70;34.40;;;;;;6169033;28;83162;-61
2023/11/29 09:52:34;;;;;;;17.15;11.05;;;22.70;34.30;;;;;;6171474;28;84390;-61
2023/11/29 09:55:34;;;;;;;18.05;11.80;;;22.80;34.40;;;;;;6169517;28;84351;-61
2023/11/29 09:58:35;;;;;;;19.05;12.15;;;22.80;34.30;;;;;;6172407;28;83929;-61
2023/11/29 10:01:35;;;;;;;16.27;11.35;;;22.80;34.30;;;;;;6172517;28;83265;-60
2023/11/29 10:04:36;;;;;;;16.38;11.48;;;22.80;34.20;;;;;;6169329;28;85508;-60
2023/11/29 10:07:37;;;;;;;15.75;10.90;;;22.90;34.30;;;;;;6171660;28;82825;-61
2023/11/29 10:10:37;;;;;;;19.40;12.27;;;22.80;34.20;;;;;;6173593;28;84679;-61
2023/11/29 10:13:38;;;;;;;17.30;11.95;;;22.90;34.10;;;;;;6172513;28;83053;-63
2023/11/29 10:16:38;;;;;;;18.75;12.57;;;22.90;33.90;;;;;;6173480;28;83836;-62
2023/11/29 10:19:38;;;;;;;19.08;12.20;;;22.90;34.00;;;;;;6172778;28;83847;-62
2023/11/29 10:22:39;;;;;;;19.35;12.10;;;23.00;33.90;;;;;;6173157;28;83093;-62
2023/11/29 10:25:40;;;;;;;19.38;12.40;;;23.10;33.90;;;;;;6172779;28;84112;-60
2023/11/29 10:28:40;;;;;;;18.85;12.43;;;23.20;33.90;;;;;;6172770;28;84034;-60
2023/11/29 10:31:41;;;;;;;20.80;12.32;;;23.30;34.00;;;;;;6166107;28;82880;-60
2023/11/29 10:34:41;;;;;;;17.90;12.70;;;23.30;33.60;;;;;;6171260;28;88001;-61
2023/11/29 10:37:41;;;;;;;17.75;12.48;;;23.50;33.60;;;;;;6170187;28;83778;-60
2023/11/29 10:40:42;;;;;;;21.33;12.82;;;23.60;33.50;;;;;;6172733;28;83268;-61
2023/11/29 10:43:42;;;;;;;19.60;13.02;;;23.70;33.60;;;;;;6170005;28;84806;-62
2023/11/29 10:46:43;;;;;;;18.48;12.20;;;23.80;33.70;;;;;;6172167;28;83614;-60
2023/11/29 10:49:44;;;;;;;18.48;13.10;;;23.90;33.70;;;;;;6173433;28;83054;-59
2023/11/29 10:52:46;;;;;;;20.98;13.85;;;24.00;33.60;;;;;;6172190;28;82743;-60
2023/11/29 10:55:47;;;;;;;19.15;12.55;;;24.10;33.80;;;;;;6171627;28;83432;-60
2023/11/29 10:58:48;;;;;;;19.60;12.35;;;24.20;33.90;;;;;;6172801;28;83064;-61
2023/11/29 11:01:48;;;;;;;20.67;13.70;;;24.20;34.00;;;;;;6171703;28;83771;-61
2023/11/29 11:04:49;;;;;;;19.50;12.38;;;24.30;34.10;;;;;;6172535;28;83283;-60
2023/11/29 11:07:49;;;;;;;19.13;12.77;;;24.30;34.10;;;;;;6172744;28;83433;-61
2023/11/29 11:10:50;;;;;;;19.50;12.80;;;24.40;34.30;;;;;;6172750;28;83099;-61
2023/11/29 11:13:50;;;;;;;19.13;11.88;;;24.50;34.20;;;;;;6172063;28;84641;-61
2023/11/29 11:16:51;;;;;;;21.95;12.95;;;24.60;34.30;;;;;;6169348;28;83757;-60
2023/11/29 11:19:51;;;;;;;19.35;13.65;;;24.60;34.20;;;;;;6168910;28;84430;-60
2023/11/29 11:22:52;;;;;;;17.67;12.38;;;24.70;34.30;;;;;;6171559;28;83300;-61
2023/11/29 11:25:53;;;;;;;21.27;12.60;;;24.70;34.40;;;;;;6171340;28;85760;-62
2023/11/29 11:28:53;;;;;;;18.90;12.60;;;24.80;34.50;;;;;;6171842;28;84071;-64
2023/11/29 11:31:53;;;;;;;17.98;12.70;;;24.90;34.70;;;;;;6171985;28;86114;-60
2023/11/29 11:34:54;;;;;;;18.45;12.43;;;24.90;34.50;;;;;;6171332;28;85625;-59
2023/11/29 11:37:55;;;;;;;20.17;13.18;;;25.00;34.50;;;;;;6172460;28;82902;-59
2023/11/29 11:40:56;;;;;;;20.77;12.43;;;25.00;34.20;;;;;;6170810;28;85151;-60
2023/11/29 11:43:56;;;;;;;18.15;12.77;;;25.10;34.40;;;;;;6171531;28;82945;-60
2023/11/29 11:46:57;;;;;;;19.58;13.80;;;25.20;35.10;;;;;;6169613;28;82828;-60
2023/11/29 11:49:57;;;;;;;18.30;12.73;;;25.30;34.30;;;;;;6172236;28;84135;-60
2023/11/29 11:53:03;;;;;;;18.45;12.48;;;25.30;34.20;;;;;;6172255;28;83304;-59
2023/11/29 11:56:03;;;;;;;17.48;12.68;;;25.40;34.20;;;;;;6171074;28;83257;-60
2023/11/29 11:59:04;;;;;;;18.52;12.20;;;25.50;34.10;;;;;;6170931;28;83392;-60
2023/11/29 12:02:04;;;;;;;21.65;14.23;;;25.50;34.20;;;;;;6170531;28;83266;-58
2023/11/29 12:05:05;;;;;;;16.77;12.00;;;25.60;34.20;;;;;;6171369;28;83615;-60
2023/11/29 12:08:05;;;;;;;19.20;13.07;;;25.70;34.10;;;;;;6168476;28;85210;-60
2023/11/29 12:11:06;;;;;;;18.83;12.65;;;25.70;34.20;;;;;;6166816;28;83310;-59
2023/11/29 12:14:07;;;;;;;17.60;11.55;;;25.70;34.30;;;;;;6169997;28;86220;-60
2023/11/29 12:17:07;;;;;;;18.30;12.20;;;25.70;35.20;;;;;;6169806;28;86661;-60
2023/11/29 12:20:08;;;;;;;17.35;12.18;;;25.80;34.40;;;;;;6169643;28;83312;-60
2023/11/29 12:23:11;;;;;;;18.85;12.27;;;25.90;34.40;;;;;;6169770;28;83244;-60
2023/11/29 12:26:12;;;;;;;17.35;12.68;;;25.90;34.40;;;;;;6171518;28;83066;-61
2023/11/29 12:29:12;;;;;;;18.90;12.48;;;25.90;34.10;;;;;;6175041;28;84894;-61
2023/11/29 12:32:13;;;;;;;19.83;12.57;;;25.90;33.90;;;;;;6173266;28;82926;-61
2023/11/29 12:35:15;;;;;;;20.10;13.48;;;25.90;33.90;;;;;;6175345;28;83438;-60
2023/11/29 12:38:16;;;;;;;21.80;12.90;;;25.90;33.80;;;;;;6163380;28;83342;-60
2023/11/29 12:41:16;;;;;;;18.05;13.05;;;25.90;33.70;;;;;;6173796;28;82884;-60
2023/11/29 12:44:17;;;;;;;18.70;12.95;;;25.90;33.60;;;;;;6174440;28;83228;-60
2023/11/29 12:47:17;;;;;;;19.27;13.35;;;25.90;33.60;;;;;;6175055;28;83145;-62
2023/11/29 12:50:18;;;;;;;20.63;13.05;;;25.90;33.40;;;;;;6174324;28;87416;-61
2023/11/29 12:53:18;;;;;;;19.98;13.25;;;25.80;33.50;;;;;;6175480;28;83761;-61
2023/11/29 12:56:19;;;;;;;16.33;12.63;;;25.80;33.60;;;;;;6174876;28;85083;-62
2023/11/29 12:59:19;;;;;;;21.63;13.90;;;25.80;33.30;;;;;;6174602;28;83443;-62
2023/11/29 13:02:20;;;;;;;20.67;12.95;;;25.80;33.60;;;;;;6174706;28;84218;-61
2023/11/29 13:05:21;;;;;;;18.63;12.85;;;25.70;33.40;;;;;;6174753;28;83854;-61
2023/11/29 13:08:21;;;;;;;17.10;11.15;;;25.70;33.20;;;;;;6172836;28;83622;-60
2023/11/29 13:11:22;;;;;;;17.55;11.57;;;25.70;33.40;;;;;;6174237;28;82953;-61
2023/11/29 13:14:22;;;;;;;15.88;11.07;;;25.60;33.70;;;;;;6173966;28;85104;-63
2023/11/29 13:17:23;;;;;;;15.52;11.18;;;25.60;33.70;;;;;;6173826;28;83546;-63
2023/11/29 13:20:23;;;;;;;18.55;10.77;;;25.50;33.50;;;;;;6174164;28;83909;-61
2023/11/29 13:23:24;;;;;;;12.63;10.10;;;25.50;33.60;;;;;;6172251;28;83031;-62
2023/11/29 13:26:24;;;;;;;15.63;10.85;;;25.40;33.70;;;;;;6174241;28;83403;-61
2023/11/29 13:29:25;;;;;;;17.42;11.05;;;25.40;33.60;;;;;;6174457;28;83456;-62
2023/11/29 13:32:25;;;;;;;14.73;10.65;;;25.30;33.50;;;;;;6173747;28;83065;-62
2023/11/29 13:35:26;;;;;;;15.75;10.43;;;25.30;33.70;;;;;;6173823;28;83060;-61
2023/11/29 13:38:26;;;;;;;13.90;9.30;;;25.20;33.40;;;;;;6174160;28;83687;-62
2023/11/29 13:41:27;;;;;;;16.08;10.57;;;25.10;33.60;;;;;;6178380;28;83551;-62
2023/11/29 13:44:28;;;;;;;14.00;10.02;;;25.00;33.60;;;;;;6173970;28;82905;-61
2023/11/29 13:47:28;;;;;;;14.60;10.40;;;24.90;33.90;;;;;;6173649;28;83672;-61
2023/11/29 13:50:29;;;;;;;16.45;11.15;;;24.80;33.90;;;;;;6173122;28;83328;-61
2023/11/29 13:53:29;;;;;;;17.65;10.98;;;24.70;33.70;;;;;;6174309;28;84077;-61
2023/11/29 13:56:30;;;;;;;18.15;11.65;;;24.60;34.00;;;;;;6173684;28;83805;-60
2023/11/29 13:59:30;;;;;;;17.92;11.88;;;24.60;34.00;;;;;;6174371;28;83464;-63
2023/11/29 14:02:31;;;;;;;19.30;12.30;;;24.50;33.60;;;;;;6173988;28;82977;-63
2023/11/29 14:05:32;;;;;;;18.27;11.88;;;24.40;33.90;;;;;;6174182;28;83125;-62
2023/11/29 14:08:32;;;;;;;20.92;12.98;;;24.30;33.70;;;;;;6172166;28;83278;-62
2023/11/29 14:11:35;;;;;;;18.65;12.60;;;24.20;33.80;;;;;;6172446;28;83209;-62
2023/11/29 14:14:36;;;;;;;18.20;12.15;;;24.10;33.70;;;;;;6173814;28;84049;-63
2023/11/29 14:17:36;;;;;;;20.10;13.07;;;24.00;33.60;;;;;;6172500;28;83667;-63
2023/11/29 14:20:37;;;;;;;17.77;12.95;;;23.90;33.60;;;;;;6171170;28;82925;-62
2023/11/29 14:23:37;;;;;;;19.13;13.30;;;23.80;33.70;;;;;;6171137;28;90271;-62
2023/11/29 14:26:38;;;;;;;18.80;12.57;;;23.70;33.80;;;;;;6146737;28;87987;-61
2023/11/29 14:29:38;;;;;;;19.70;12.40;;;23.60;33.90;;;;;;6147591;28;86590;-62
2023/11/29 14:32:39;;;;;;;20.88;12.60;;;23.60;34.10;;;;;;6146992;28;85266;-61
2023/11/29 14:35:39;;;;;;;21.52;13.98;;;23.50;34.20;;;;;;6147960;28;83674;-60
2023/11/29 14:38:40;;;;;;;21.63;13.48;;;23.50;34.40;;;;;;6152260;28;85475;-61
2023/11/29 14:41:42;;;;;;;18.92;13.10;;;23.40;34.40;;;;;;6176280;28;82921;-60
2023/11/29 14:44:42;;;;;;;20.08;13.20;;;23.40;34.50;;;;;;6169823;28;83527;-60
2023/11/29 14:47:43;;;;;;;19.67;13.52;;;23.30;34.50;;;;;;6166666;28;83513;-61
2023/11/29 14:50:43;;;;;;;19.90;13.85;;;23.30;34.80;;;;;;6170512;28;84368;-61
2023/11/29 14:53:43;;;;;;;20.92;13.35;;;23.20;34.60;;;;;;6171372;28;83324;-59
2023/11/29 14:56:44;;;;;;;23.00;13.10;;;23.20;34.70;;;;;;6166966;28;83133;-61
2023/11/29 14:59:45;;;;;;;19.55;13.43;;;23.20;35.00;;;;;;6171381;28;86017;-61
2023/11/29 15:02:45;;;;;;;18.55;12.68;;;23.20;34.80;;;;;;6171378;28;85044;-59
2023/11/29 15:05:46;;;;;;;21.75;12.98;;;23.30;35.40;;;;;;6173322;28;83586;-60
2023/11/29 15:08:46;;;;;;;18.75;12.63;;;23.30;34.60;;;;;;6171813;28;83284;-60
2023/11/29 15:11:52;;;;;;;20.10;13.82;;;23.30;34.70;;;;;;6171569;28;85811;-61
2023/11/29 15:14:52;;;;;;;20.83;12.85;;;23.30;34.50;;;;;;6170438;28;85436;-62
2023/11/29 15:17:53;;;;;;;18.20;12.82;;;23.40;34.50;;;;;;6172880;28;83555;-63